PWSweather.com
Personal Weather Stations
Station Observations
CW9610
Rural Jefferson County, Mclouth, KS 66054

Rural Jefferson CountyMclouth, KS 66054

Lat: 39.1947, Lon: -95.238

Elevation: 1151

Station Type: Davis VP2

http://mclwx.info

Latest ConditionsUpdated 6:00:00 AM CST Tuesday, Dec 6, 2016
Currently Today's Max Today's Min Today's Average
Temperature 31.4°F-0.3°C 38.1°F3.4°C 31.4°F-0.3°C 35.0°F1.7°C
Dew Point 23.4°F-4.8°C 33.8°F1.0°C 23.4°F-4.8°C 29.6°F-1.3°C
Winds 11.3 mph NW18.2 kmh NW 17.7 mph NW28.5 kmh NW - 9.6 mph 15.4 kmh
Wind Gusts 22.0 mph35.4 kmh 28.0 mph45.1 kmh - -
Humidity 72% 85% 72% 81%
Pressure 29.97 in1014.9 mb 29.97 in1014.9 mb 29.79 in1008.8 mb -
Hour Temp Dew Point Humidity Winds Wind Gusts Pressure Precip Precip Rate Daily Precip Total
06:00 AM 31.4°F-0.3°C 23.4°F-4.8°C 72% 11.3 mph NW18.2 kmh NW 22.0 mph35.4 kmh 29.97 in1014.9 mb 0.00 in0.0 mm 0.00 in0.0 mm 0.00 in0.0 mm
05:45 AM 31.4°F-0.3°C 24.1°F-4.4°C 74% 12.9 mph NW20.8 kmh NW 18.0 mph29.0 kmh 29.95 in1014.2 mb 0.00 in0.0 mm 0.00 in0.0 mm 0.00 in0.0 mm
05:30 AM 31.6°F-0.2°C 24.3°F-4.3°C 74% 13.1 mph NW21.1 kmh NW 22.0 mph35.4 kmh 29.94 in1013.9 mb 0.00 in0.0 mm 0.00 in0.0 mm 0.00 in0.0 mm
05:15 AM 31.8°F-0.1°C 24.8°F-4.0°C 75% 12.0 mph NW19.3 kmh NW 19.0 mph30.6 kmh 29.93 in1013.5 mb 0.00 in0.0 mm 0.00 in0.0 mm 0.00 in0.0 mm
05:00 AM 32.2°F0.1°C 25.8°F-3.4°C 77% 11.4 mph NW18.3 kmh NW 18.0 mph29.0 kmh 29.92 in1013.2 mb 0.00 in0.0 mm 0.00 in0.0 mm 0.00 in0.0 mm
04:45 AM 32.6°F0.3°C 26.5°F-3.1°C 78% 12.5 mph NW20.1 kmh NW 19.0 mph30.6 kmh 29.92 in1013.2 mb 0.00 in0.0 mm 0.00 in0.0 mm 0.00 in0.0 mm
04:30 AM 33.1°F0.6°C 26.7°F-2.9°C 77% 13.9 mph NW22.4 kmh NW 19.0 mph30.6 kmh 29.91 in1012.9 mb 0.00 in0.0 mm 0.00 in0.0 mm 0.00 in0.0 mm
04:15 AM 33.3°F0.7°C 27.2°F-2.7°C 78% 14.0 mph NW22.5 kmh NW 22.0 mph35.4 kmh 29.91 in1012.9 mb 0.00 in0.0 mm 0.00 in0.0 mm 0.00 in0.0 mm
04:00 AM 33.3°F0.7°C 27.5°F-2.5°C 79% 14.9 mph NW24.0 kmh NW 22.0 mph35.4 kmh 29.90 in1012.5 mb 0.00 in0.0 mm 0.00 in0.0 mm 0.00 in0.0 mm
03:45 AM 33.8°F1.0°C 28.3°F-2.1°C 80% 14.1 mph NW22.7 kmh NW 18.0 mph29.0 kmh 29.89 in1012.2 mb 0.00 in0.0 mm 0.00 in0.0 mm 0.00 in0.0 mm
03:30 AM 34.5°F1.4°C 29.0°F-1.7°C 80% 14.9 mph NW24.0 kmh NW 26.0 mph41.8 kmh 29.88 in1011.9 mb 0.00 in0.0 mm 0.00 in0.0 mm 0.00 in0.0 mm
03:15 AM 35.4°F1.9°C 30.5°F-0.8°C 82% 17.7 mph NW28.5 kmh NW 28.0 mph45.1 kmh 29.88 in1011.9 mb 0.00 in0.0 mm 0.00 in0.0 mm 0.00 in0.0 mm
03:00 AM 35.9°F2.2°C 30.9°F-0.6°C 82% 13.9 mph NW22.4 kmh NW 26.0 mph41.8 kmh 29.88 in1011.9 mb 0.00 in0.0 mm 0.00 in0.0 mm 0.00 in0.0 mm
02:45 AM 37.2°F2.9°C 32.5°F0.3°C 83% 15.3 mph NNW24.6 kmh NNW 23.0 mph37.0 kmh 29.86 in1011.2 mb 0.00 in0.0 mm 0.00 in0.0 mm 0.00 in0.0 mm
02:30 AM 37.6°F3.1°C 32.9°F0.5°C 83% 16.0 mph NW25.7 kmh NW 23.0 mph37.0 kmh 29.86 in1011.2 mb 0.00 in0.0 mm 0.00 in0.0 mm 0.00 in0.0 mm
02:15 AM 38.1°F3.4°C 33.7°F0.9°C 84% 12.4 mph NW20.0 kmh NW 22.0 mph35.4 kmh 29.85 in1010.8 mb 0.00 in0.0 mm 0.00 in0.0 mm 0.00 in0.0 mm
02:00 AM 37.9°F3.3°C 33.8°F1.0°C 85% 8.9 mph NW14.3 kmh NW 17.0 mph27.4 kmh 29.84 in1010.5 mb 0.00 in0.0 mm 0.00 in0.0 mm 0.00 in0.0 mm
01:45 AM 37.0°F2.8°C 32.9°F0.5°C 85% 3.8 mph WNW6.1 kmh WNW 9.0 mph14.5 kmh 29.83 in1010.2 mb 0.00 in0.0 mm 0.00 in0.0 mm 0.00 in0.0 mm
01:30 AM 36.8°F2.7°C 32.7°F0.4°C 85% 1.5 mph S2.4 kmh S 3.0 mph4.8 kmh 29.82 in1009.8 mb 0.00 in0.0 mm 0.00 in0.0 mm 0.00 in0.0 mm
01:15 AM 36.4°F2.4°C 32.0°F0.0°C 84% Calm Calm 4.0 mph6.4 kmh 29.82 in1009.8 mb 0.00 in0.0 mm 0.00 in0.0 mm 0.00 in0.0 mm
01:00 AM 36.9°F2.7°C 32.5°F0.3°C 84% 0.2 mph 0.3 kmh -- 29.81 in1009.5 mb 0.00 in0.0 mm 0.00 in0.0 mm 0.00 in0.0 mm
12:45 AM 37.1°F2.8°C 32.7°F0.4°C 84% 0.5 mph S0.8 kmh S 3.0 mph4.8 kmh 29.81 in1009.5 mb 0.00 in0.0 mm 0.00 in0.0 mm 0.00 in0.0 mm
12:30 AM 36.6°F2.6°C 32.2°F0.1°C 84% 0.6 mph S1.0 kmh S 4.0 mph6.4 kmh 29.80 in1009.1 mb 0.00 in0.0 mm 0.00 in0.0 mm 0.00 in0.0 mm
12:15 AM 36.6°F2.6°C 32.2°F0.1°C 84% 3.0 mph S4.8 kmh S 5.0 mph8.0 kmh 29.80 in1009.1 mb 0.00 in0.0 mm 0.00 in0.0 mm 0.00 in0.0 mm
12:00 AM 36.2°F2.3°C 31.8°F-0.1°C 84% Calm Calm 4.0 mph6.4 kmh 29.79 in1008.8 mb 0.00 in0.0 mm 0.00 in0.0 mm 0.00 in0.0 mm